createdAt,value
2022-09-14T00:01:24.858Z,15.12
2022-09-14T00:04:34.607Z,15.09
2022-09-14T00:07:40.565Z,15.13
2022-09-14T00:10:50.880Z,15.04
2022-09-14T00:13:59.200Z,14.85
2022-09-14T00:17:06.408Z,15.05
2022-09-14T00:20:15.198Z,14.98
2022-09-14T00:23:20.944Z,14.95
2022-09-14T00:26:27.423Z,15.01
2022-09-14T00:29:34.260Z,15.02
2022-09-14T00:32:40.595Z,14.95
2022-09-14T00:35:48.985Z,14.93
2022-09-14T00:38:56.893Z,14.97
2022-09-14T00:42:02.947Z,14.99
2022-09-14T00:45:19.386Z,14.99
2022-09-14T00:48:37.447Z,15.06
2022-09-14T00:51:56.177Z,14.97
2022-09-14T00:55:07.724Z,14.97
2022-09-14T00:58:13.687Z,15.01
2022-09-14T01:01:20.021Z,15.07
2022-09-14T01:04:26.616Z,14.98
2022-09-14T01:07:59.988Z,15.10
2022-09-14T01:11:26.998Z,15.15
2022-09-14T01:14:46.314Z,15.01
2022-09-14T01:18:08.236Z,15.05
2022-09-14T01:21:22.916Z,14.94
2022-09-14T01:24:49.464Z,14.92
2022-09-14T01:28:06.684Z,14.85
2022-09-14T01:31:21.686Z,14.74
2022-09-14T01:34:38.005Z,14.71
2022-09-14T01:37:52.966Z,14.61
2022-09-14T01:41:06.668Z,14.68
2022-09-14T01:44:23.475Z,14.64
2022-09-14T01:47:38.914Z,14.59
2022-09-14T01:50:55.876Z,14.65
2022-09-14T01:54:14.593Z,14.62
2022-09-14T01:57:32.189Z,14.62
2022-09-14T02:00:48.387Z,14.57
2022-09-14T02:04:05.574Z,14.54
2022-09-14T02:07:12.813Z,14.50
2022-09-14T02:10:21.392Z,14.50
2022-09-14T02:13:28.510Z,14.44
2022-09-14T02:16:36.911Z,14.56
2022-09-14T02:19:53.945Z,14.51
2022-09-14T02:23:00.101Z,14.46
2022-09-14T02:26:08.228Z,14.31
2022-09-14T02:29:13.985Z,14.47
2022-09-14T02:32:37.050Z,14.32
2022-09-14T02:35:53.226Z,14.34
2022-09-14T02:39:14.959Z,14.41
2022-09-14T02:42:37.376Z,14.17
2022-09-14T02:45:58.152Z,14.21
2022-09-14T02:49:19.101Z,14.24
2022-09-14T02:52:38.967Z,14.12
2022-09-14T02:55:54.574Z,14.06
2022-09-14T02:59:00.124Z,13.88
2022-09-14T03:02:07.505Z,13.90
2022-09-14T03:05:15.902Z,13.96
2022-09-14T03:08:21.599Z,14.02
2022-09-14T03:11:27.071Z,13.95
2022-09-14T03:14:32.677Z,13.92
2022-09-14T03:17:38.204Z,13.98
2022-09-14T03:20:48.320Z,13.87
2022-09-14T03:23:58.103Z,13.81
2022-09-14T03:27:03.710Z,13.86
2022-09-14T03:30:11.735Z,13.78
2022-09-14T03:33:20.031Z,13.85
2022-09-14T03:36:31.479Z,13.98
2022-09-14T03:39:37.860Z,14.07
2022-09-14T03:42:45.889Z,14.05
2022-09-14T03:45:51.412Z,13.98
2022-09-14T03:48:58.385Z,13.99
2022-09-14T03:52:07.165Z,13.86
2022-09-14T03:55:14.569Z,13.83
2022-09-14T03:58:20.056Z,13.63
2022-09-14T04:01:26.765Z,13.69
2022-09-14T04:04:32.725Z,13.77
2022-09-14T04:07:40.855Z,13.73
2022-09-14T04:10:48.968Z,13.74
2022-09-14T04:13:56.190Z,13.67
2022-09-14T04:17:02.346Z,13.69
2022-09-14T04:20:09.373Z,13.68
2022-09-14T04:23:18.674Z,13.68
2022-09-14T04:26:28.955Z,13.70
2022-09-14T04:29:34.507Z,13.71
2022-09-14T04:32:40.316Z,13.68
2022-09-14T04:35:45.934Z,13.58
2022-09-14T04:38:57.945Z,13.61
2022-09-14T04:42:03.612Z,13.62
2022-09-14T04:45:10.826Z,13.69
2022-09-14T04:48:16.352Z,13.70
2022-09-14T04:51:26.261Z,13.67
2022-09-14T04:54:34.503Z,13.71
2022-09-14T04:57:40.033Z,13.59
2022-09-14T05:00:48.286Z,13.65
2022-09-14T05:03:55.001Z,13.69
2022-09-14T05:07:00.549Z,13.84
2022-09-14T05:10:18.671Z,13.75
2022-09-14T05:13:24.303Z,13.90
2022-09-14T05:16:32.878Z,13.92
2022-09-14T05:19:38.739Z,14.21
2022-09-14T05:22:44.565Z,14.20
2022-09-14T05:25:58.800Z,14.39
2022-09-14T05:29:09.393Z,14.48
2022-09-14T05:32:15.419Z,14.82
2022-09-14T05:35:21.278Z,15.14
2022-09-14T05:38:27.050Z,15.33
2022-09-14T05:41:35.414Z,15.60
2022-09-14T05:44:41.986Z,16.37
2022-09-14T05:47:47.686Z,16.30
2022-09-14T05:51:02.350Z,16.59
2022-09-14T05:54:18.656Z,16.62
2022-09-14T05:57:33.791Z,16.97
2022-09-14T06:00:39.749Z,17.02
2022-09-14T06:03:49.098Z,17.24
2022-09-14T06:07:17.446Z,17.78
2022-09-14T06:10:23.042Z,18.43
2022-09-14T06:13:31.790Z,19.14
2022-09-14T06:16:38.289Z,19.99
2022-09-14T06:19:44.065Z,20.20
2022-09-14T06:22:49.720Z,20.33
2022-09-14T06:25:57.194Z,20.28
2022-09-14T06:29:05.577Z,19.59
2022-09-14T06:32:11.137Z,19.15
2022-09-14T06:35:16.819Z,18.98
2022-09-14T06:38:22.305Z,19.37
2022-09-14T06:41:33.003Z,19.19
2022-09-14T06:44:41.093Z,19.03
2022-09-14T06:47:46.662Z,18.82
2022-09-14T06:50:52.191Z,19.06
2022-09-14T06:54:05.237Z,19.10
2022-09-14T06:57:10.824Z,19.38
2022-09-14T07:00:19.817Z,19.86
2022-09-14T07:03:30.852Z,20.30
2022-09-14T07:06:42.875Z,20.32
2022-09-14T07:09:48.404Z,20.38
2022-09-14T07:12:54.463Z,20.07
2022-09-14T07:16:03.588Z,19.44
2022-09-14T07:19:14.179Z,19.08
2022-09-14T07:22:19.959Z,18.96
2022-09-14T07:25:25.679Z,18.62
2022-09-14T07:28:32.997Z,18.30
2022-09-14T07:31:46.360Z,18.26
2022-09-14T07:34:58.110Z,18.25
2022-09-14T07:38:03.708Z,18.03
2022-09-14T07:41:10.036Z,18.09
2022-09-14T07:44:19.927Z,17.95
2022-09-14T07:47:31.401Z,17.98
2022-09-14T07:50:43.570Z,18.42
2022-09-14T07:53:49.437Z,18.80
2022-09-14T07:56:55.190Z,18.63
2022-09-14T08:00:01.297Z,18.64
2022-09-14T08:03:09.508Z,18.80
2022-09-14T08:06:18.807Z,19.08
2022-09-14T08:09:30.703Z,19.35
2022-09-14T08:12:36.197Z,18.88
2022-09-14T08:15:46.323Z,18.97
2022-09-14T08:18:58.414Z,19.37
2022-09-14T08:22:04.451Z,19.32
2022-09-14T08:25:11.850Z,19.78
2022-09-14T08:28:17.439Z,19.84
2022-09-14T08:31:25.817Z,20.23
2022-09-14T08:34:34.494Z,19.96
2022-09-14T08:37:40.020Z,20.60
2022-09-14T08:40:51.733Z,21.21
2022-09-14T08:43:58.295Z,21.43
2022-09-14T08:47:09.180Z,21.63
2022-09-14T08:50:22.309Z,21.76
2022-09-14T08:53:29.872Z,21.58
2022-09-14T08:56:43.609Z,21.27
2022-09-14T09:00:05.629Z,21.24
2022-09-14T09:03:51.488Z,20.98
2022-09-14T09:07:14.257Z,20.45
2022-09-14T09:10:22.005Z,20.04
2022-09-14T09:13:36.655Z,19.48
2022-09-14T09:16:43.004Z,19.51
2022-09-14T09:20:06.092Z,19.16
2022-09-14T09:23:23.451Z,18.95
2022-09-14T09:26:34.823Z,19.14
2022-09-14T09:29:40.421Z,18.55
2022-09-14T09:32:49.115Z,18.02
2022-09-14T09:36:18.576Z,17.94
2022-09-14T09:39:27.495Z,17.93
2022-09-14T09:42:33.747Z,17.89
2022-09-14T09:46:00.592Z,17.59
2022-09-14T09:49:20.654Z,17.89
2022-09-14T09:52:27.245Z,18.24
2022-09-14T09:55:42.721Z,18.48
2022-09-14T09:58:52.009Z,18.38
2022-09-14T10:02:30.964Z,18.51
2022-09-14T10:05:36.731Z,18.94
2022-09-14T10:08:50.127Z,19.03
2022-09-14T10:12:12.728Z,18.72
2022-09-14T10:15:26.005Z,18.59
2022-09-14T10:18:36.365Z,18.15
2022-09-14T10:22:08.611Z,18.06
2022-09-14T10:25:29.013Z,18.05
2022-09-14T10:28:37.738Z,17.85
2022-09-14T10:31:47.756Z,17.88
2022-09-14T10:34:54.246Z,17.92
2022-09-14T10:38:25.500Z,17.77
2022-09-14T10:41:45.719Z,17.40
2022-09-14T10:45:20.208Z,17.39
2022-09-14T10:49:06.084Z,17.11
2022-09-14T10:52:30.078Z,17.02
2022-09-14T10:55:50.067Z,17.07
2022-09-14T10:59:28.123Z,16.78
2022-09-14T11:03:27.805Z,16.77
2022-09-14T11:06:56.195Z,16.67
2022-09-14T11:10:23.250Z,16.63
2022-09-14T11:13:54.250Z,16.52
2022-09-14T11:17:30.658Z,16.54
2022-09-14T11:20:53.901Z,16.64
2022-09-14T11:24:15.151Z,16.32
2022-09-14T11:27:35.592Z,16.55
2022-09-14T11:30:50.942Z,16.54
2022-09-14T11:34:16.457Z,16.64
2022-09-14T11:37:33.836Z,16.92
2022-09-14T11:41:00.178Z,17.03
2022-09-14T11:44:18.825Z,17.08
2022-09-14T11:47:29.265Z,17.14
2022-09-14T11:50:40.997Z,17.01
2022-09-14T11:53:52.746Z,16.96
2022-09-14T11:57:06.717Z,16.65
2022-09-14T12:01:03.691Z,16.62
2022-09-14T12:04:20.011Z,16.59
2022-09-14T12:08:05.333Z,16.24
2022-09-14T12:11:34.258Z,15.87
2022-09-14T12:14:44.836Z,15.93
2022-09-14T12:17:51.885Z,15.52
2022-09-14T12:21:10.764Z,15.31
2022-09-14T12:24:25.909Z,15.32
2022-09-14T12:27:39.428Z,15.26
2022-09-14T12:31:16.804Z,15.39
2022-09-14T12:34:35.286Z,15.12
2022-09-14T12:37:41.230Z,15.13
2022-09-14T12:40:53.184Z,15.21
2022-09-14T12:44:02.444Z,15.15
2022-09-14T12:47:53.896Z,14.95
2022-09-14T12:51:00.239Z,15.14
2022-09-14T12:54:32.346Z,15.26
2022-09-14T12:57:52.739Z,15.27
2022-09-14T13:01:29.548Z,15.19
2022-09-14T13:04:42.451Z,14.96
2022-09-14T13:07:49.941Z,14.87
2022-09-14T13:10:56.543Z,15.03
2022-09-14T13:14:05.265Z,14.71
2022-09-14T13:17:20.370Z,15.11
2022-09-14T13:20:29.419Z,15.14
2022-09-14T13:23:42.283Z,15.21
2022-09-14T13:26:48.117Z,15.32
2022-09-14T13:30:05.587Z,15.12
2022-09-14T13:33:20.395Z,14.91
2022-09-14T13:36:34.195Z,14.85
2022-09-14T13:39:46.068Z,15.38
2022-09-14T13:42:52.312Z,15.65
2022-09-14T13:45:59.809Z,15.97
2022-09-14T13:49:12.418Z,16.44
2022-09-14T13:53:03.619Z,16.72
2022-09-14T13:56:27.153Z,17.08
2022-09-14T13:59:33.587Z,16.86
2022-09-14T14:02:44.077Z,16.58
2022-09-14T14:05:51.946Z,16.32
2022-09-14T14:09:05.283Z,15.78
2022-09-14T14:12:23.501Z,15.64
2022-09-14T14:15:42.442Z,15.60
2022-09-14T14:18:56.580Z,15.40
2022-09-14T14:22:23.333Z,15.52
2022-09-14T14:25:42.135Z,15.41
2022-09-14T14:28:51.456Z,15.58
2022-09-14T14:31:59.550Z,15.49
2022-09-14T14:35:17.634Z,15.35
2022-09-14T14:38:30.745Z,15.42
2022-09-14T14:41:40.516Z,15.35
2022-09-14T14:44:48.397Z,15.27
2022-09-14T14:48:00.638Z,15.59
2022-09-14T14:51:12.208Z,15.38
2022-09-14T14:54:19.011Z,15.45
2022-09-14T14:57:27.296Z,15.17
2022-09-14T15:00:38.641Z,15.46
2022-09-14T15:03:44.649Z,15.39
2022-09-14T15:06:51.574Z,15.39
2022-09-14T15:09:59.956Z,15.50
2022-09-14T15:13:11.897Z,15.63
2022-09-14T15:16:19.126Z,15.67
2022-09-14T15:19:24.685Z,15.78
2022-09-14T15:22:30.280Z,15.84
2022-09-14T15:25:36.274Z,15.77
2022-09-14T15:28:44.363Z,15.75
2022-09-14T15:31:50.731Z,15.78
2022-09-14T15:34:56.514Z,15.70
2022-09-14T15:38:02.392Z,15.68
2022-09-14T15:41:08.784Z,15.74
2022-09-14T15:44:17.180Z,15.75
2022-09-14T15:47:22.803Z,15.84
2022-09-14T15:50:28.413Z,15.75
2022-09-14T15:53:34.000Z,15.72
2022-09-14T15:56:40.011Z,15.73
2022-09-14T15:59:53.327Z,15.39
2022-09-14T16:02:58.892Z,15.34
2022-09-14T16:06:06.307Z,15.27
2022-09-14T16:09:14.540Z,15.16
2022-09-14T16:12:28.551Z,15.23
2022-09-14T16:15:36.968Z,15.19
2022-09-14T16:18:43.275Z,15.18
2022-09-14T16:21:53.487Z,15.13
2022-09-14T16:24:59.306Z,15.12
2022-09-14T16:28:08.218Z,15.07
2022-09-14T16:31:20.366Z,15.08
2022-09-14T16:34:29.848Z,15.14
2022-09-14T16:37:35.545Z,15.13
2022-09-14T16:40:43.594Z,15.01
2022-09-14T16:43:49.329Z,14.98
2022-09-14T16:47:00.889Z,15.01
2022-09-14T16:50:07.067Z,15.01
2022-09-14T16:53:18.256Z,15.09
2022-09-14T16:56:31.684Z,15.08
2022-09-14T16:59:37.250Z,14.83
2022-09-14T17:02:45.863Z,14.82
2022-09-14T17:05:51.588Z,14.85
2022-09-14T17:09:06.382Z,14.89
2022-09-14T17:12:13.909Z,14.82
2022-09-14T17:15:19.747Z,14.91
2022-09-14T17:18:27.907Z,14.89
2022-09-14T17:21:36.872Z,14.95
2022-09-14T17:24:42.937Z,14.76
2022-09-14T17:27:50.026Z,14.80
2022-09-14T17:30:57.460Z,14.73
2022-09-14T17:34:08.552Z,14.76
2022-09-14T17:37:14.714Z,14.69
2022-09-14T17:40:20.829Z,14.61
2022-09-14T17:43:26.481Z,14.41
2022-09-14T17:46:34.364Z,14.26
2022-09-14T17:49:42.854Z,14.16
2022-09-14T17:52:56.043Z,14.28
2022-09-14T17:56:05.860Z,14.22
2022-09-14T17:59:16.003Z,14.31
2022-09-14T18:02:22.277Z,14.32
2022-09-14T18:05:35.872Z,14.39
2022-09-14T18:08:50.004Z,14.50
2022-09-14T18:12:00.728Z,14.46
2022-09-14T18:15:15.378Z,14.41
2022-09-14T18:18:21.180Z,14.35
2022-09-14T18:21:30.918Z,14.43
2022-09-14T18:24:42.651Z,14.20
2022-09-14T18:27:48.638Z,14.19
2022-09-14T18:31:05.487Z,14.22
2022-09-14T18:34:24.068Z,14.12
2022-09-14T18:37:32.848Z,14.11
2022-09-14T18:40:45.234Z,14.30
2022-09-14T18:43:55.709Z,14.42
2022-09-14T18:47:02.532Z,14.28
2022-09-14T18:50:11.582Z,14.31
2022-09-14T18:53:20.156Z,14.22
2022-09-14T18:56:26.097Z,14.27
2022-09-14T18:59:31.953Z,14.05
2022-09-14T19:02:39.636Z,14.07
2022-09-14T19:05:49.804Z,14.11
2022-09-14T19:08:58.763Z,14.19
2022-09-14T19:12:05.498Z,14.24
2022-09-14T19:15:15.385Z,14.20
2022-09-14T19:18:21.463Z,14.47
2022-09-14T19:21:31.365Z,14.40
2022-09-14T19:24:40.122Z,14.31
2022-09-14T19:27:45.898Z,14.42
2022-09-14T19:30:51.758Z,14.42
2022-09-14T19:33:59.247Z,14.21
2022-09-14T19:37:05.252Z,14.20
2022-09-14T19:40:16.878Z,14.12
2022-09-14T19:43:23.254Z,14.08
2022-09-14T19:46:32.411Z,14.05
2022-09-14T19:49:38.346Z,14.06
2022-09-14T19:52:43.994Z,14.10
2022-09-14T19:55:52.373Z,13.91
2022-09-14T19:59:06.331Z,13.86
2022-09-14T20:02:14.522Z,13.79
2022-09-14T20:05:20.572Z,13.71
2022-09-14T20:08:29.441Z,13.68
2022-09-14T20:11:41.140Z,13.77
2022-09-14T20:14:46.997Z,13.68
2022-09-14T20:17:57.826Z,13.76
2022-09-14T20:21:06.546Z,13.86
2022-09-14T20:24:18.214Z,13.97
2022-09-14T20:27:29.170Z,14.02
2022-09-14T20:30:39.444Z,14.06
2022-09-14T20:33:45.490Z,14.19
2022-09-14T20:36:53.182Z,14.23
2022-09-14T20:39:58.700Z,14.16
2022-09-14T20:43:07.333Z,14.17
2022-09-14T20:46:17.931Z,14.35
2022-09-14T20:49:27.136Z,14.43
2022-09-14T20:52:32.948Z,14.24
2022-09-14T20:55:38.577Z,13.87
2022-09-14T20:58:56.193Z,13.77
2022-09-14T21:02:05.298Z,13.82
2022-09-14T21:05:17.190Z,13.80
2022-09-14T21:08:23.783Z,13.91
2022-09-14T21:11:31.320Z,13.79
2022-09-14T21:14:39.564Z,13.72
2022-09-14T21:17:45.110Z,13.78
2022-09-14T21:20:50.683Z,13.77
2022-09-14T21:23:58.661Z,13.83
2022-09-14T21:27:05.002Z,13.85
2022-09-14T21:30:15.441Z,13.86
2022-09-14T21:33:23.054Z,13.72
2022-09-14T21:36:43.181Z,13.67
2022-09-14T21:39:48.723Z,13.70
2022-09-14T21:42:55.384Z,13.57
2022-09-14T21:46:14.862Z,13.67
2022-09-14T21:49:23.713Z,13.95
2022-09-14T21:52:29.397Z,14.21
2022-09-14T21:55:35.066Z,14.25
2022-09-14T21:58:40.599Z,14.02
2022-09-14T22:01:49.819Z,13.71
2022-09-14T22:04:55.490Z,13.77
2022-09-14T22:08:01.061Z,13.74
2022-09-14T22:11:09.108Z,14.04
2022-09-14T22:14:23.818Z,14.25
2022-09-14T22:17:32.066Z,14.37
2022-09-14T22:20:37.693Z,14.49
2022-09-14T22:23:43.824Z,14.53
2022-09-14T22:26:50.652Z,14.49
2022-09-14T22:29:58.165Z,14.35
2022-09-14T22:33:06.443Z,14.19
2022-09-14T22:36:15.083Z,14.17
2022-09-14T22:39:21.780Z,14.32
2022-09-14T22:42:28.312Z,14.43
2022-09-14T22:45:33.782Z,14.57
2022-09-14T22:48:43.240Z,14.49
2022-09-14T22:51:48.906Z,14.67
2022-09-14T22:54:54.526Z,14.78
2022-09-14T22:58:00.137Z,14.76
2022-09-14T23:01:11.544Z,14.85
2022-09-14T23:04:19.882Z,14.90
2022-09-14T23:07:25.597Z,14.73
2022-09-14T23:10:31.425Z,14.74
2022-09-14T23:13:40.763Z,14.65
2022-09-14T23:16:52.205Z,14.64
2022-09-14T23:20:00.585Z,14.49
2022-09-14T23:23:06.797Z,14.52
2022-09-14T23:26:15.376Z,14.60
2022-09-14T23:29:20.823Z,14.63
2022-09-14T23:32:26.498Z,14.48
2022-09-14T23:35:37.556Z,14.42
2022-09-14T23:38:43.491Z,14.43
2022-09-14T23:41:49.215Z,14.22
2022-09-14T23:44:54.737Z,14.11
2022-09-14T23:48:00.286Z,14.13
2022-09-14T23:51:12.496Z,14.14
2022-09-14T23:54:18.214Z,14.22
2022-09-14T23:57:23.733Z,14.24
